Time;durP1;ratioP1;P1;durP2;ratioP2;P2;SDS_P1;SDS_P2;PMS_P1;PMS_P2;Temp;Humidity;BMP_temperature;BMP_pressure;BME280_temperature;BME280_humidity;BME280_pressure;Samples;Min_cycle;Max_cycle;Signal;HPM_P1;HPM_P2
2023/09/30 00:01:10;;;;;;;21.67;13.27;;;;;;;12.62;100.00;100858.49;1449070;90;21604;-84
2023/09/30 00:03:37;;;;;;;20.53;13.40;;;;;;;12.57;100.00;100853.28;1447692;90;21446;-84
2023/09/30 00:06:03;;;;;;;23.20;13.90;;;;;;;12.55;100.00;100845.98;1451288;90;21489;-84
2023/09/30 00:08:30;;;;;;;23.27;13.63;;;;;;;12.53;100.00;100848.78;1450969;90;21469;-84
2023/09/30 00:10:56;;;;;;;20.00;13.93;;;;;;;12.50;100.00;100847.75;1448370;90;21461;-84
2023/09/30 00:13:23;;;;;;;23.80;13.23;;;;;;;12.48;100.00;100843.08;1436264;90;21490;-84
2023/09/30 00:15:49;;;;;;;21.50;13.03;;;;;;;12.46;100.00;100843.73;1454491;90;22281;-83
2023/09/30 00:18:16;;;;;;;17.80;11.80;;;;;;;12.46;100.00;100845.53;1451274;90;21543;-83
2023/09/30 00:20:42;;;;;;;36.63;14.63;;;;;;;12.46;100.00;100842.41;1450340;90;21541;-84
2023/09/30 00:23:08;;;;;;;23.70;11.63;;;;;;;12.45;100.00;100838.06;1451398;89;22418;-85
2023/09/30 00:25:34;;;;;;;21.00;12.90;;;;;;;12.43;100.00;100842.71;1437775;90;21567;-85
2023/09/30 00:28:01;;;;;;;26.90;13.73;;;;;;;12.39;100.00;100843.98;1451824;90;21624;-85
2023/09/30 00:30:27;;;;;;;19.37;13.37;;;;;;;12.33;100.00;100844.08;1447957;90;21476;-85
2023/09/30 00:32:53;;;;;;;22.93;13.73;;;;;;;12.28;100.00;100844.18;1447911;90;21528;-85
2023/09/30 00:35:20;;;;;;;22.73;12.40;;;;;;;12.18;100.00;100848.23;1454121;90;21515;-85
2023/09/30 00:37:46;;;;;;;19.63;12.57;;;;;;;12.08;100.00;100844.28;1450538;90;21594;-85
2023/09/30 00:40:13;;;;;;;20.33;10.90;;;;;;;12.01;100.00;100843.20;1453955;90;21512;-86
2023/09/30 00:42:40;;;;;;;16.20;10.47;;;;;;;11.97;100.00;100847.15;1456967;89;21644;-84
2023/09/30 00:45:11;;;;;;;18.60;11.47;;;;;;;11.96;100.00;100845.45;1458510;89;21439;-85
2023/09/30 00:47:37;;;;;;;21.57;11.73;;;;;;;11.95;100.00;100846.45;1455444;89;21474;-84
2023/09/30 00:50:08;;;;;;;15.83;11.50;;;;;;;11.92;100.00;100843.59;1451160;89;21535;-85
2023/09/30 00:52:36;;;;;;;20.20;13.08;;;;;;;11.90;100.00;100848.70;1462971;89;21579;-86
2023/09/30 00:55:03;;;;;;;19.93;13.03;;;;;;;11.83;100.00;100847.09;1462944;89;21575;-87
2023/09/30 00:57:30;;;;;;;22.20;12.90;;;;;;;11.81;100.00;100839.77;1458732;89;22348;-88
2023/09/30 00:59:58;;;;;;;24.30;13.30;;;;;;;11.78;100.00;100840.06;1459118;89;21459;-87
2023/09/30 01:02:24;;;;;;;25.90;13.27;;;;;;;11.76;100.00;100836.70;1463150;89;22540;-86
2023/09/30 01:04:51;;;;;;;18.10;10.57;;;;;;;11.76;100.00;100836.70;1455612;89;21454;-86
2023/09/30 01:07:17;;;;;;;15.40;11.77;;;;;;;11.78;100.00;100837.91;1456628;89;22455;-87
2023/09/30 01:09:43;;;;;;;24.47;12.80;;;;;;;11.76;100.00;100838.03;1456114;89;21475;-86
2023/09/30 01:12:09;;;;;;;25.57;14.43;;;;;;;11.73;100.00;100841.81;1459435;89;21608;-87
2023/09/30 01:14:42;;;;;;;27.30;16.07;;;;;;;11.70;100.00;100834.14;1445838;89;22414;-87
2023/09/30 01:17:08;;;;;;;18.27;13.53;;;;;;;11.70;100.00;100835.97;1456014;89;22334;-86
2023/09/30 01:19:35;;;;;;;21.03;14.47;;;;;;;11.65;100.00;100831.58;1449419;89;22458;-84
2023/09/30 01:22:05;;;;;;;19.83;11.77;;;;;;;11.65;100.00;100832.45;1441156;89;21416;-85
2023/09/30 01:24:30;;;;;;;15.67;11.53;;;;;;;11.64;100.00;100834.73;1461677;89;21608;-83
2023/09/30 01:26:57;;;;;;;17.37;12.87;;;;;;;11.62;100.00;100831.38;1464249;89;21638;-83
2023/09/30 01:29:26;;;;;;;17.47;11.40;;;;;;;11.59;100.00;100830.34;1458585;89;21534;-85
2023/09/30 01:31:52;;;;;;;20.17;12.90;;;;;;;11.56;100.00;100829.31;1460386;89;21519;-85
2023/09/30 01:34:19;;;;;;;27.37;13.77;;;;;;;11.54;100.00;100823.34;1443203;89;22591;-86
2023/09/30 01:36:46;;;;;;;16.93;12.27;;;;;;;11.55;100.00;100831.62;1460947;89;21461;-86
2023/09/30 01:39:14;;;;;;;21.20;13.27;;;;;;;11.50;100.00;100827.23;1463440;89;22348;-84
2023/09/30 01:41:41;;;;;;;22.07;12.20;;;;;;;11.45;100.00;100828.15;1460775;89;21439;-84
2023/09/30 01:44:09;;;;;;;19.17;12.20;;;;;;;11.42;100.00;100821.81;1462824;89;22525;-85
2023/09/30 01:46:36;;;;;;;19.60;11.50;;;;;;;11.39;100.00;100823.42;1453581;89;21527;-84
2023/09/30 01:49:06;;;;;;;16.83;11.67;;;;;;;11.35;100.00;100822.89;1453503;89;22401;-85
2023/09/30 01:51:32;;;;;;;17.13;11.07;;;;;;;11.32;100.00;100818.37;1456497;89;21438;-88
2023/09/30 01:53:58;;;;;;;26.93;12.30;;;;;;;11.24;100.00;100814.60;1461662;89;21483;-88
2023/09/30 01:56:25;;;;;;;17.63;12.57;;;;;;;11.20;100.00;100818.53;1461419;89;21460;-85
2023/09/30 01:58:51;;;;;;;26.07;13.87;;;;;;;11.17;100.00;100820.14;1454477;89;21527;-88
2023/09/30 02:01:18;;;;;;;19.20;12.30;;;;;;;11.15;100.00;100826.55;1464322;89;22466;-89
2023/09/30 02:03:44;;;;;;;19.73;10.33;;;;;;;11.12;100.00;100823.69;1456108;89;21439;-85
2023/09/30 02:06:10;;;;;;;19.00;11.83;;;;;;;11.06;100.00;100825.59;1452414;89;21617;-86
2023/09/30 02:08:36;;;;;;;16.57;10.60;;;;;;;11.04;100.00;100816.94;1460289;89;21482;-86
2023/09/30 02:11:05;;;;;;;15.30;9.80;;;;;;;11.01;100.00;100819.86;1461955;89;21460;-86
2023/09/30 02:13:35;;;;;;;17.07;10.27;;;;;;;10.97;100.00;100814.52;1459631;89;22474;-86
2023/09/30 02:16:01;;;;;;;17.07;11.83;;;;;;;10.94;100.00;100814.80;1462296;89;22423;-85
2023/09/30 02:18:32;;;;;;;18.23;10.90;;;;;;;10.92;100.00;100816.74;1455610;89;21424;-87
2023/09/30 02:20:59;;;;;;;19.00;10.50;;;;;;;10.87;100.00;100818.47;1459141;89;22429;-88
2023/09/30 02:23:25;;;;;;;15.70;10.40;;;;;;;10.84;100.00;100816.94;1457375;89;21490;-88
2023/09/30 02:25:52;;;;;;;13.63;10.40;;;;;;;10.77;100.00;100821.14;1457304;89;22539;-89
2023/09/30 02:28:18;;;;;;;20.57;11.53;;;;;;;10.65;100.00;100826.72;1452703;89;21527;-88
2023/09/30 02:30:44;;;;;;;17.13;10.67;;;;;;;10.58;100.00;100824.59;1459561;89;21387;-88
2023/09/30 02:33:10;;;;;;;15.23;10.60;;;;;;;10.59;100.00;100824.13;1460472;89;21460;-87
2023/09/30 02:35:38;;;;;;;14.43;9.03;;;;;;;10.60;100.00;100823.15;1454957;89;21609;-86
2023/09/30 02:38:05;;;;;;;14.53;9.07;;;;;;;10.59;100.00;100829.43;1452310;89;21482;-88
2023/09/30 02:40:31;;;;;;;14.13;10.23;;;;;;;10.57;100.00;100822.10;1446333;89;22415;-86
2023/09/30 02:42:57;;;;;;;13.70;9.63;;;;;;;10.51;100.00;100822.66;1453593;89;21536;-85
2023/09/30 02:45:24;;;;;;;12.37;9.33;;;;;;;10.49;100.00;100824.59;1451910;90;21491;-86
2023/09/30 02:47:50;;;;;;;12.97;10.70;;;;;;;10.48;100.00;100828.23;1453788;89;21604;-85
2023/09/30 02:50:16;;;;;;;12.47;10.27;;;;;;;10.47;100.00;100826.53;1450196;89;21446;-86
2023/09/30 02:52:42;;;;;;;14.67;10.43;;;;;;;10.47;100.00;100834.02;1454658;90;22423;-87
2023/09/30 02:55:12;;;;;;;21.87;9.60;;;;;;;10.47;100.00;100823.42;1448280;90;21424;-89
2023/09/30 02:57:39;;;;;;;13.98;9.83;;;;;;;10.53;100.00;100825.98;1454027;89;22378;-89
2023/09/30 03:00:32;;;;;;;12.00;9.77;;;;;;;10.54;100.00;100830.32;1450245;89;21712;-86
2023/09/30 03:02:36;;;;;;;23.62;10.48;;;;;;;10.53;100.00;100832.59;1430411;90;21613;-88
2023/09/30 03:05:02;;;;;;;15.37;11.23;;;;;;;10.56;100.00;100831.03;1453698;90;22326;-89
2023/09/30 03:07:30;;;;;;;17.30;11.97;;;;;;;10.60;100.00;100833.24;1456938;89;21612;-90
2023/09/30 03:09:57;;;;;;;21.50;13.10;;;;;;;10.63;100.00;100826.84;1447468;90;22319;-89
2023/09/30 03:12:23;;;;;;;22.00;13.57;;;;;;;10.63;100.00;100837.42;1452629;90;21505;-89
2023/09/30 03:14:51;;;;;;;16.33;12.50;;;;;;;10.63;100.00;100830.81;1449371;89;21616;-88
2023/09/30 03:17:17;;;;;;;23.53;12.23;;;;;;;10.57;100.00;100834.84;1451994;90;21468;-85
2023/09/30 03:19:43;;;;;;;19.00;11.77;;;;;;;10.51;100.00;100835.39;1453317;90;22356;-87
2023/09/30 03:22:11;;;;;;;22.70;11.47;;;;;;;10.49;100.00;100831.21;1446889;89;21431;-86
2023/09/30 03:24:39;;;;;;;15.83;10.90;;;;;;;10.48;100.00;100833.03;1451698;90;22497;-86
2023/09/30 03:27:06;;;;;;;23.37;11.27;;;;;;;10.48;100.00;100824.25;1453418;90;21387;-86
2023/09/30 03:29:32;;;;;;;19.00;11.87;;;;;;;10.49;100.00;100826.75;1447427;90;22407;-86
2023/09/30 03:31:58;;;;;;;19.30;11.73;;;;;;;10.45;100.00;100828.01;1456147;90;21528;-87
2023/09/30 03:34:24;;;;;;;16.57;11.27;;;;;;;10.36;100.00;100823.05;1455763;90;21587;-86
2023/09/30 03:36:50;;;;;;;24.20;12.07;;;;;;;10.30;100.00;100820.95;1451323;89;22445;-85
2023/09/30 03:39:17;;;;;;;17.60;10.90;;;;;;;10.26;100.00;100821.32;1461760;90;21469;-87
2023/09/30 03:41:44;;;;;;;21.17;12.07;;;;;;;10.19;100.00;100822.36;1448984;89;21475;-86
2023/09/30 03:44:11;;;;;;;24.80;11.80;;;;;;;10.16;100.00;100822.63;1452214;89;21645;-86
2023/09/30 03:46:37;;;;;;;16.77;10.73;;;;;;;10.16;100.00;100821.31;1456397;89;21469;-87
2023/09/30 03:49:03;;;;;;;15.37;10.03;;;;;;;10.16;100.00;100818.66;1442299;89;21608;-87
2023/09/30 03:51:29;;;;;;;19.80;10.37;;;;;;;10.22;100.00;100818.12;1455135;89;21671;-85
2023/09/30 03:53:55;;;;;;;15.13;11.33;;;;;;;10.28;100.00;100814.95;1452433;89;21445;-89
2023/09/30 03:56:22;;;;;;;16.83;12.10;;;;;;;10.30;100.00;100816.98;1438246;89;22340;-87
2023/09/30 03:58:48;;;;;;;17.50;11.67;;;;;;;10.31;100.00;100813.85;1453767;89;21438;-84
2023/09/30 04:01:14;;;;;;;18.63;12.27;;;;;;;10.29;100.00;100815.30;1443594;89;21632;-87
2023/09/30 04:03:43;;;;;;;24.13;12.53;;;;;;;10.26;100.00;100819.50;1457691;89;21431;-86
2023/09/30 04:06:09;;;;;;;27.00;12.07;;;;;;;10.23;100.00;100825.07;1460389;89;21505;-86
2023/09/30 04:08:35;;;;;;;24.13;12.67;;;;;;;10.22;100.00;100820.77;1463894;89;21409;-87
2023/09/30 04:11:03;;;;;;;17.03;10.87;;;;;;;10.19;100.00;100819.71;1441693;89;22369;-86
2023/09/30 04:13:29;;;;;;;20.27;11.80;;;;;;;10.18;100.00;100820.66;1464880;89;21527;-89
2023/09/30 04:15:58;;;;;;;20.63;10.37;;;;;;;10.21;100.00;100822.20;1463071;89;21467;-87
2023/09/30 04:18:26;;;;;;;19.57;13.00;;;;;;;10.24;100.00;100826.77;1444784;89;22289;-93
2023/09/30 04:20:53;;;;;;;19.87;12.30;;;;;;;10.29;100.00;100829.84;1458139;89;22028;-87
2023/09/30 04:23:20;;;;;;;15.00;10.73;;;;;;;10.32;100.00;100832.70;1453745;89;21610;-90
2023/09/30 04:25:47;;;;;;;18.87;12.20;;;;;;;10.30;100.00;100828.03;1461011;89;21476;-89
2023/09/30 04:28:15;;;;;;;21.30;11.83;;;;;;;10.25;100.00;100838.17;1456508;89;21491;-89
2023/09/30 04:30:41;;;;;;;19.77;12.33;;;;;;;10.23;100.00;100834.33;1461487;89;21660;-86
2023/09/30 04:33:08;;;;;;;18.00;10.20;;;;;;;10.24;100.00;100829.41;1463731;89;21424;-86
2023/09/30 04:35:38;;;;;;;13.13;8.83;;;;;;;10.23;100.00;100840.11;1456301;89;21564;-86
2023/09/30 04:38:05;;;;;;;21.07;11.33;;;;;;;10.10;100.00;100846.48;1460621;89;21453;-85
2023/09/30 04:40:32;;;;;;;22.60;12.60;;;;;;;10.09;100.00;100838.18;1456233;89;21660;-85
2023/09/30 04:42:59;;;;;;;17.17;12.57;;;;;;;10.07;100.00;100840.60;1460589;89;22488;-85
2023/09/30 04:45:28;;;;;;;23.00;12.70;;;;;;;10.04;100.00;100843.52;1449514;89;21542;-84
2023/09/30 04:47:56;;;;;;;26.53;13.40;;;;;;;9.96;100.00;100843.37;1457857;90;21720;-86
2023/09/30 04:50:22;;;;;;;30.43;14.80;;;;;;;9.94;100.00;100843.00;1455122;90;22474;-85
2023/09/30 04:52:50;;;;;;;20.83;13.70;;;;;;;9.91;100.00;100844.59;1455496;89;21630;-86
2023/09/30 04:55:16;;;;;;;19.83;14.73;;;;;;;9.90;100.00;100838.97;1445436;89;21446;-85
2023/09/30 04:57:50;;;;;;;22.30;14.10;;;;;;;9.84;100.00;100844.79;1447937;89;21528;-86
2023/09/30 05:00:19;;;;;;;21.50;14.10;;;;;;;9.81;100.00;100855.62;1451108;89;21446;-85
2023/09/30 05:02:45;;;;;;;23.63;15.47;;;;;;;9.84;100.00;100853.17;1457317;90;21395;-86
2023/09/30 05:05:12;;;;;;;20.77;13.60;;;;;;;9.85;100.00;100859.67;1458940;90;21668;-85
2023/09/30 05:07:38;;;;;;;18.13;14.13;;;;;;;9.86;100.00;100864.47;1451774;89;22415;-84
2023/09/30 05:10:07;;;;;;;16.70;13.20;;;;;;;9.93;100.00;100870.92;1446471;90;21431;-86
2023/09/30 05:12:33;;;;;;;19.10;12.63;;;;;;;10.01;100.00;100868.91;1453207;90;22510;-86
2023/09/30 05:14:59;;;;;;;20.60;13.13;;;;;;;10.10;100.00;100864.17;1456049;90;21520;-86
2023/09/30 05:17:26;;;;;;;16.30;12.13;;;;;;;10.17;100.00;100874.55;1438863;90;21445;-86
2023/09/30 05:19:53;;;;;;;17.40;12.80;;;;;;;10.20;100.00;100872.95;1446694;90;22555;-85
2023/09/30 05:22:23;;;;;;;17.77;13.07;;;;;;;10.25;100.00;100880.01;1455674;89;21461;-84
2023/09/30 05:24:47;;;;;;;18.13;13.57;;;;;;;10.27;100.00;100882.08;1452000;89;21431;-85
2023/09/30 05:27:14;;;;;;;16.87;13.20;;;;;;;10.33;100.00;100878.89;1445627;90;21423;-85
2023/09/30 05:29:40;;;;;;;18.00;12.83;;;;;;;10.37;100.00;100880.28;1445956;90;22326;-84
2023/09/30 05:32:06;;;;;;;16.93;12.43;;;;;;;10.42;100.00;100884.34;1456537;90;21592;-84
2023/09/30 05:34:33;;;;;;;14.50;11.73;;;;;;;10.48;100.00;100881.98;1456306;90;21543;-85
2023/09/30 05:36:59;;;;;;;15.20;12.03;;;;;;;10.55;100.00;100885.75;1450912;90;21476;-84
2023/09/30 05:39:25;;;;;;;14.27;10.50;;;;;;;10.65;100.00;100884.45;1458750;90;21660;-84
2023/09/30 05:41:51;;;;;;;12.03;10.83;;;;;;;10.73;100.00;100891.23;1445720;90;22378;-84
2023/09/30 05:44:18;;;;;;;15.97;12.10;;;;;;;10.81;100.00;100891.36;1458276;89;21519;-85
2023/09/30 05:46:45;;;;;;;13.17;11.50;;;;;;;10.92;100.00;100892.22;1445079;89;21468;-84
2023/09/30 05:49:13;;;;;;;14.00;11.57;;;;;;;11.02;100.00;100890.42;1453467;89;22444;-83
2023/09/30 05:51:41;;;;;;;15.13;11.90;;;;;;;11.13;100.00;100888.09;1460379;89;21897;-86
2023/09/30 05:54:09;;;;;;;13.57;11.03;;;;;;;11.16;100.00;100889.97;1453364;89;22436;-87
2023/09/30 05:56:42;;;;;;;25.57;11.30;;;;;;;11.15;100.00;100893.61;1454816;89;21415;-89
2023/09/30 05:59:08;;;;;;;11.30;10.10;;;;;;;11.19;100.00;100886.21;1456567;89;21534;-88
2023/09/30 06:01:35;;;;;;;14.33;10.70;;;;;;;11.31;100.00;100887.76;1464158;89;21467;-89
2023/09/30 06:04:04;;;;;;;16.73;12.23;;;;;;;11.39;100.00;100883.89;1455669;89;21712;-90
2023/09/30 06:06:31;;;;;;;13.83;11.87;;;;;;;11.53;100.00;100890.56;1469486;89;21394;-90
2023/09/30 06:08:59;;;;;;;15.70;13.43;;;;;;;11.67;100.00;100894.09;1457677;89;22444;-89
2023/09/30 06:11:28;;;;;;;16.93;12.70;;;;;;;11.78;100.00;100886.96;1455692;89;22260;-90
2023/09/30 06:13:55;;;;;;;16.27;13.40;;;;;;;11.84;100.00;100885.05;1456345;89;22532;-89
2023/09/30 06:16:23;;;;;;;17.53;12.77;;;;;;;11.94;100.00;100893.37;1454830;89;22288;-90
2023/09/30 06:18:50;;;;;;;20.00;13.00;;;;;;;12.15;100.00;100896.28;1461958;89;21549;-91
2023/09/30 06:21:20;;;;;;;18.30;13.67;;;;;;;12.34;100.00;100891.36;1457698;89;21504;-90
2023/09/30 06:23:44;;;;;;;16.13;12.80;;;;;;;12.47;100.00;100897.66;1460033;89;21535;-88
2023/09/30 06:26:11;;;;;;;18.43;13.67;;;;;;;12.58;100.00;100898.29;1455720;89;21453;-90
2023/09/30 06:28:42;;;;;;;21.50;13.70;;;;;;;12.71;100.00;100902.40;1460870;89;21541;-85
2023/09/30 06:31:09;;;;;;;19.97;14.50;;;;;;;12.75;100.00;100902.46;1459909;89;21460;-86
2023/09/30 06:33:38;;;;;;;23.23;15.07;;;;;;;12.81;100.00;100902.69;1455776;89;21572;-87
2023/09/30 06:36:13;;;;;;;22.67;15.23;;;;;;;12.92;100.00;100909.61;1456524;89;21402;-84
2023/09/30 06:38:44;;;;;;;17.97;14.57;;;;;;;13.02;100.00;100902.38;1447909;89;21630;-88
2023/09/30 06:41:16;;;;;;;;;;;;;;;13.13;100.00;100907.14;1460068;89;21505;-86
2023/09/30 06:43:43;;;;;;;20.03;14.90;;;;;;;13.28;100.00;100905.13;1459216;89;20495;-87
2023/09/30 06:46:10;;;;;;;24.43;14.57;;;;;;;13.44;100.00;100910.27;1448395;90;21469;-85
2023/09/30 06:48:37;;;;;;;21.73;15.70;;;;;;;13.60;100.00;100904.20;1450701;89;21468;-89
2023/09/30 06:51:03;;;;;;;20.70;15.67;;;;;;;13.79;100.00;100901.36;1449192;90;21498;-87
2023/09/30 06:53:29;;;;;;;22.90;16.33;;;;;;;13.97;100.00;100891.47;1448977;89;21510;-87
2023/09/30 06:55:56;;;;;;;20.00;14.67;;;;;;;14.15;100.00;100898.53;1453553;89;22466;-86
2023/09/30 06:58:22;;;;;;;23.27;15.80;;;;;;;14.33;100.00;100892.64;1433597;90;21572;-85
2023/09/30 07:00:50;;;;;;;20.90;13.47;;;;;;;14.50;100.00;100898.00;1448914;90;21505;-87
2023/09/30 07:03:19;;;;;;;24.63;15.27;;;;;;;14.70;100.00;100898.59;1451971;89;21461;-83
2023/09/30 07:05:49;;;;;;;21.30;17.03;;;;;;;14.83;100.00;100896.30;1451509;89;21690;-89
2023/09/30 07:08:13;;;;;;;27.93;16.60;;;;;;;15.00;100.00;100901.16;1450325;89;21681;-87
2023/09/30 07:10:40;;;;;;;18.27;13.90;;;;;;;15.03;100.00;100904.33;1451814;90;21454;-88
2023/09/30 07:13:08;;;;;;;21.03;14.93;;;;;;;15.22;100.00;100898.33;1447817;90;21676;-87
2023/09/30 07:15:35;;;;;;;23.47;15.67;;;;;;;15.39;100.00;100897.83;1435488;90;21528;-88
2023/09/30 07:18:02;;;;;;;22.20;16.27;;;;;;;15.48;100.00;100895.00;1449272;90;21593;-85
2023/09/30 07:20:32;;;;;;;21.20;16.27;;;;;;;15.57;100.00;100894.50;1450829;90;21431;-88
2023/09/30 07:22:57;;;;;;;18.73;15.63;;;;;;;15.68;100.00;100897.33;1478631;90;21432;-87
2023/09/30 07:25:23;;;;;;;25.10;14.23;;;;;;;15.87;100.00;100882.78;1478382;90;21675;-88
2023/09/30 07:27:49;;;;;;;22.57;17.03;;;;;;;16.04;100.00;100891.58;1451835;89;22414;-85
2023/09/30 07:30:15;;;;;;;22.00;16.77;;;;;;;16.18;100.00;100887.69;1447875;90;22040;-87
2023/09/30 07:32:44;;;;;;;18.30;14.63;;;;;;;16.36;100.00;100883.94;1444904;90;21682;-87
2023/09/30 07:35:15;;;;;;;24.57;13.83;;;;;;;16.52;100.00;100889.20;1449267;90;21631;-89
2023/09/30 07:37:41;;;;;;;19.02;14.40;;;;;;;16.66;100.00;100887.13;1449126;90;21719;-87
2023/09/30 07:40:10;;;;;;;20.40;15.60;;;;;;;16.79;100.00;100883.06;1452924;90;22348;-88
2023/09/30 07:42:36;;;;;;;19.13;13.67;;;;;;;16.98;100.00;100887.95;1449272;89;21608;-88
2023/09/30 07:45:04;;;;;;;22.03;15.63;;;;;;;17.09;100.00;100888.88;1451045;89;21535;-87
2023/09/30 07:47:32;;;;;;;23.30;15.50;;;;;;;17.26;100.00;100886.91;1446172;90;21469;-84
2023/09/30 07:50:00;;;;;;;23.97;14.40;;;;;;;17.43;100.00;100881.39;1447616;90;21616;-88
2023/09/30 07:52:26;;;;;;;23.30;15.45;;;;;;;17.53;100.00;100880.63;1372033;90;21352;-88
2023/09/30 07:54:52;;;;;;;29.05;14.75;;;;;;;17.69;100.00;100882.30;1445765;90;21476;-85
2023/09/30 07:57:22;;;;;;;24.25;15.72;;;;;;;17.85;100.00;100886.19;1447592;90;22415;-87
2023/09/30 07:59:48;;;;;;;25.20;15.60;;;;;;;18.03;100.00;100887.97;1442887;90;22481;-87
2023/09/30 08:02:14;;;;;;;26.05;15.08;;;;;;;18.26;100.00;100880.34;1447994;90;21549;-88
2023/09/30 08:04:41;;;;;;;23.02;15.58;;;;;;;18.49;100.00;100883.71;1447741;90;21514;-88
2023/09/30 08:07:07;;;;;;;18.98;14.65;;;;;;;18.74;100.00;100888.78;1447441;90;21461;-88
2023/09/30 08:09:37;;;;;;;21.65;15.80;;;;;;;18.96;100.00;100886.95;1443793;90;21485;-87
2023/09/30 08:12:04;;;;;;;22.17;14.65;;;;;;;19.14;100.00;100887.83;1443581;90;22378;-95
2023/09/30 08:14:30;;;;;;;20.35;14.38;;;;;;;19.29;100.00;100891.26;1448908;90;21683;-90
2023/09/30 08:16:57;;;;;;;31.00;15.45;;;;;;;19.50;100.00;100889.56;1454274;90;21403;-92
2023/09/30 08:19:23;;;;;;;21.37;15.43;;;;;;;19.68;100.00;100892.64;1450537;90;21454;-91
2023/09/30 08:21:50;;;;;;;30.57;14.98;;;;;;;19.71;100.00;100897.61;1448434;90;21513;-90
2023/09/30 08:24:17;;;;;;;23.57;14.95;;;;;;;19.76;100.00;100889.77;1453605;90;21624;-92
2023/09/30 08:26:43;;;;;;;19.48;13.83;;;;;;;19.84;100.00;100889.62;1445476;90;22346;-92
2023/09/30 08:29:09;;;;;;;26.90;14.90;;;;;;;19.95;100.00;100893.63;1446420;90;21491;-91
2023/09/30 08:31:35;;;;;;;30.05;13.60;;;;;;;20.11;100.00;100885.77;1435763;90;22476;-90
2023/09/30 08:34:03;;;;;;;19.12;13.88;;;;;;;20.35;100.00;100884.94;1449787;90;21476;-89
2023/09/30 08:36:31;;;;;;;19.73;13.10;;;;;;;20.57;100.00;100890.53;1430014;90;21469;-88
2023/09/30 08:38:58;;;;;;;24.10;12.68;;;;;;;20.73;100.00;100890.67;1447139;90;22334;-92
2023/09/30 08:41:32;;;;;;;20.97;11.85;;;;;;;20.86;100.00;100883.98;1450441;90;21543;-91
2023/09/30 08:44:03;;;;;;;21.80;12.80;;;;;;;21.04;100.00;100887.42;1443849;90;21446;-91
2023/09/30 08:46:34;;;;;;;31.40;11.18;;;;;;;21.44;100.00;100883.43;1448130;89;21587;-91
2023/09/30 08:49:03;;;;;;;26.52;12.30;;;;;;;21.44;100.00;100883.43;1452053;89;21453;-91
2023/09/30 08:51:30;;;;;;;16.85;10.80;;;;;;;21.62;100.00;100888.99;1450578;90;21535;-88
2023/09/30 08:53:58;;;;;;;24.37;11.25;;;;;;;21.79;100.00;100883.17;1449773;90;22003;-92
2023/09/30 08:56:29;;;;;;;16.73;10.23;;;;;;;21.94;100.00;100886.45;1454012;90;21645;-91
2023/09/30 08:59:01;;;;;;;20.65;12.13;;;;;;;21.99;100.00;100883.95;1452922;89;22521;-92
2023/09/30 09:01:31;;;;;;;17.75;11.38;;;;;;;22.07;100.00;100881.03;1451395;90;21506;-93
2023/09/30 09:03:58;;;;;;;16.90;10.85;;;;;;;22.17;100.00;100874.36;1448100;89;21961;-93
2023/09/30 09:06:25;;;;;;;20.35;12.15;;;;;;;22.21;100.00;100880.50;1456004;90;21631;-94
2023/09/30 09:08:52;;;;;;;18.67;10.60;;;;;;;22.25;100.00;100876.85;1452972;90;21424;-91
2023/09/30 09:11:18;;;;;;;16.48;10.53;;;;;;;22.31;100.00;100878.69;1445548;90;21476;-92
2023/09/30 09:13:55;;;;;;;22.67;9.53;;;;;;;22.40;100.00;100876.05;1452434;90;22527;-89
2023/09/30 09:16:23;;;;;;;19.40;10.00;;;;;;;22.56;100.00;100872.53;1450373;90;21491;-91
2023/09/30 09:18:50;;;;;;;18.60;10.40;;;;;;;22.78;100.00;100873.05;1452561;90;21630;-91
2023/09/30 09:21:20;;;;;;;18.90;8.53;;;;;;;22.91;100.00;100877.84;1430338;90;21431;-90
2023/09/30 09:23:49;;;;;;;15.48;8.20;;;;;;;23.07;100.00;100875.67;1452017;90;22522;-92
2023/09/30 09:26:29;;;;;;;13.93;8.88;;;;;;;23.16;100.00;100872.50;1457311;90;21513;-92
2023/09/30 09:29:04;;;;;;;;;;;;;;;23.29;100.00;100863.45;1455621;90;21601;-91
2023/09/30 09:31:36;;;;;;;14.95;8.10;;;;;;;23.38;100.00;100864.82;1451924;90;20739;-91
2023/09/30 09:34:14;;;;;;;14.03;8.75;;;;;;;23.57;100.00;100869.75;1451573;90;22364;-92
2023/09/30 09:36:43;;;;;;;15.93;7.70;;;;;;;23.77;100.00;100864.17;1445909;90;21461;-92
2023/09/30 09:39:13;;;;;;;24.77;8.18;;;;;;;23.95;100.00;100864.70;1445659;89;21469;-90
2023/09/30 09:41:54;;;;;;;17.82;7.87;;;;;;;24.03;100.00;100864.41;1454086;90;22065;-91
2023/09/30 09:44:22;;;;;;;16.37;7.65;;;;;;;24.14;100.00;100862.83;1442504;90;21469;-89
2023/09/30 09:46:52;;;;;;;14.58;8.75;;;;;;;24.31;100.00;100862.50;1460854;89;21689;-92
2023/09/30 09:49:20;;;;;;;18.02;8.48;;;;;;;24.37;100.00;100858.56;1454686;89;22333;-92
2023/09/30 09:51:48;;;;;;;15.85;8.23;;;;;;;24.44;100.00;100849.88;1453577;89;21448;-92
2023/09/30 09:54:17;;;;;;;15.05;7.60;;;;;;;24.51;100.00;100845.19;1448361;90;21453;-90
2023/09/30 09:56:45;;;;;;;12.73;7.67;;;;;;;24.71;100.00;100844.91;1451213;89;22496;-92
2023/09/30 09:59:13;;;;;;;21.07;7.60;;;;;;;24.92;100.00;100843.03;1446902;90;21469;-91
2023/09/30 10:01:42;;;;;;;22.35;7.37;;;;;;;25.12;100.00;100837.30;1453553;90;22043;-91
2023/09/30 10:04:11;;;;;;;22.82;7.90;;;;;;;25.17;82.80;100842.02;1453119;89;21506;-90
2023/09/30 10:06:41;;;;;;;14.43;7.87;;;;;;;25.33;82.90;100837.80;1451264;90;21658;-92
2023/09/30 10:09:11;;;;;;;19.00;8.25;;;;;;;25.53;78.77;100840.98;1449573;90;22184;-91
2023/09/30 10:11:40;;;;;;;17.52;7.30;;;;;;;25.63;62.38;100830.88;1453934;90;21468;-92
2023/09/30 10:14:11;;;;;;;21.12;6.85;;;;;;;25.61;57.44;100832.49;1447936;89;21461;-91
2023/09/30 10:16:46;;;;;;;12.90;7.47;;;;;;;25.84;56.84;100827.59;1432599;90;21468;-91
2023/09/30 10:19:22;;;;;;;13.60;6.97;;;;;;;26.13;56.06;100822.22;1449856;90;21572;-91
2023/09/30 10:22:21;;;;;;;16.45;7.55;;;;;;;26.34;55.13;100820.70;1447547;90;21424;-90
2023/09/30 10:24:51;;;;;;;17.35;7.37;;;;;;;26.41;54.70;100824.08;1452605;90;21721;-92
2023/09/30 10:27:33;;;;;;;13.48;7.33;;;;;;;26.57;54.02;100825.23;1441481;90;21453;-91
2023/09/30 10:30:10;;;;;;;13.15;6.75;;;;;;;26.73;53.92;100824.98;1452946;89;21690;-91
2023/09/30 10:32:54;;;;;;;16.40;7.33;;;;;;;26.82;46.59;100812.64;1442812;90;21498;-91
2023/09/30 10:35:34;;;;;;;14.93;7.72;;;;;;;26.40;43.52;100823.80;1447669;89;21424;-92
2023/09/30 10:38:26;;;;;;;12.55;7.67;;;;;;;26.44;44.26;100819.55;1453242;90;21542;-90
2023/09/30 10:40:53;;;;;;;14.55;7.80;;;;;;;26.58;44.01;100818.72;1454982;90;21431;-89
2023/09/30 10:43:41;;;;;;;11.88;8.65;;;;;;;26.75;44.34;100817.39;1447726;90;21469;-92
2023/09/30 10:46:30;;;;;;;11.30;7.47;;;;;;;26.95;44.21;100810.13;1431379;90;22050;-92
2023/09/30 10:48:57;;;;;;;17.03;7.07;;;;;;;27.11;44.38;100809.84;1445860;90;21454;-91
2023/09/30 10:51:23;;;;;;;19.95;8.88;;;;;;;27.19;43.75;100807.56;1452879;90;22341;-92
2023/09/30 10:53:56;;;;;;;14.07;7.60;;;;;;;27.21;43.19;100805.94;1449068;90;22287;-90
2023/09/30 10:56:27;;;;;;;14.65;7.28;;;;;;;27.25;43.06;100803.54;1426799;90;21467;-92
2023/09/30 10:58:54;;;;;;;12.03;7.47;;;;;;;27.27;42.84;100796.79;1449338;90;21580;-91
2023/09/30 11:01:22;;;;;;;14.30;6.72;;;;;;;27.26;41.59;100795.16;1447323;90;21491;-93
2023/09/30 11:03:51;;;;;;;14.80;6.90;;;;;;;27.20;40.45;100792.08;1447974;90;22622;-93
2023/09/30 11:06:21;;;;;;;15.98;6.37;;;;;;;27.18;41.13;100788.78;1448332;90;22247;-94
2023/09/30 11:09:02;;;;;;;11.57;6.22;;;;;;;27.29;40.84;100785.14;1447962;90;21506;-92